sensor_id;sensor_type;location;lat;lon;timestamp;temperature;humidity
24148;DHT22;12309;51.450;-2.624;2024-03-22T00:00:04;10.40;99.90
24148;DHT22;12309;51.450;-2.624;2024-03-22T00:02:30;10.40;99.90
24148;DHT22;12309;51.450;-2.624;2024-03-22T00:04:56;10.40;99.90
24148;DHT22;12309;51.450;-2.624;2024-03-22T00:07:21;10.40;99.90
24148;DHT22;12309;51.450;-2.624;2024-03-22T00:09:47;10.40;99.90
24148;DHT22;12309;51.450;-2.624;2024-03-22T00:12:12;10.40;99.90
24148;DHT22;12309;51.450;-2.624;2024-03-22T00:14:38;10.40;99.90
24148;DHT22;12309;51.450;-2.624;2024-03-22T00:17:04;10.40;99.90
24148;DHT22;12309;51.450;-2.624;2024-03-22T00:19:29;10.40;99.90
24148;DHT22;12309;51.450;-2.624;2024-03-22T00:21:55;10.20;99.90
24148;DHT22;12309;51.450;-2.624;2024-03-22T00:24:21;10.30;99.90
24148;DHT22;12309;51.450;-2.624;2024-03-22T00:26:47;10.30;99.90
24148;DHT22;12309;51.450;-2.624;2024-03-22T00:29:12;10.30;99.90
24148;DHT22;12309;51.450;-2.624;2024-03-22T00:31:38;10.30;99.90
24148;DHT22;12309;51.450;-2.624;2024-03-22T00:34:03;10.20;99.90
24148;DHT22;12309;51.450;-2.624;2024-03-22T00:36:29;10.20;99.90
24148;DHT22;12309;51.450;-2.624;2024-03-22T00:38:55;10.20;99.90
24148;DHT22;12309;51.450;-2.624;2024-03-22T00:41:20;10.30;99.90
24148;DHT22;12309;51.450;-2.624;2024-03-22T00:43:46;10.30;99.90
24148;DHT22;12309;51.450;-2.624;2024-03-22T00:46:11;10.30;99.90
24148;DHT22;12309;51.450;-2.624;2024-03-22T00:48:37;10.30;99.90
24148;DHT22;12309;51.450;-2.624;2024-03-22T00:51:03;10.30;99.90
24148;DHT22;12309;51.450;-2.624;2024-03-22T00:53:29;10.30;99.90
24148;DHT22;12309;51.450;-2.624;2024-03-22T00:55:55;10.30;99.90
24148;DHT22;12309;51.450;-2.624;2024-03-22T00:58:21;10.30;99.90
24148;DHT22;12309;51.450;-2.624;2024-03-22T01:00:47;10.30;99.90
24148;DHT22;12309;51.450;-2.624;2024-03-22T01:03:13;10.30;99.90
24148;DHT22;12309;51.450;-2.624;2024-03-22T01:05:38;10.30;99.90
24148;DHT22;12309;51.450;-2.624;2024-03-22T01:08:06;10.30;99.90
24148;DHT22;12309;51.450;-2.624;2024-03-22T01:10:33;10.30;99.90
24148;DHT22;12309;51.450;-2.624;2024-03-22T01:12:59;10.30;99.90
24148;DHT22;12309;51.450;-2.624;2024-03-22T01:15:25;10.30;99.90
24148;DHT22;12309;51.450;-2.624;2024-03-22T01:17:51;10.30;99.90
24148;DHT22;12309;51.450;-2.624;2024-03-22T01:20:17;10.20;99.90
24148;DHT22;12309;51.450;-2.624;2024-03-22T01:22:43;10.20;99.90
24148;DHT22;12309;51.450;-2.624;2024-03-22T01:25:08;10.10;99.90
24148;DHT22;12309;51.450;-2.624;2024-03-22T01:30:02;10.00;99.90
24148;DHT22;12309;51.450;-2.624;2024-03-22T01:32:27;10.00;99.90
24148;DHT22;12309;51.450;-2.624;2024-03-22T01:34:53;9.90;99.90
24148;DHT22;12309;51.450;-2.624;2024-03-22T01:37:19;9.90;99.90
24148;DHT22;12309;51.450;-2.624;2024-03-22T01:39:44;9.80;99.90
24148;DHT22;12309;51.450;-2.624;2024-03-22T01:42:10;9.70;99.90
24148;DHT22;12309;51.450;-2.624;2024-03-22T01:44:36;9.60;99.90
24148;DHT22;12309;51.450;-2.624;2024-03-22T01:47:02;9.50;99.90
24148;DHT22;12309;51.450;-2.624;2024-03-22T01:49:28;9.40;99.90
24148;DHT22;12309;51.450;-2.624;2024-03-22T01:51:55;9.40;99.90
24148;DHT22;12309;51.450;-2.624;2024-03-22T01:54:21;9.30;99.90
24148;DHT22;12309;51.450;-2.624;2024-03-22T01:56:47;9.30;99.90
24148;DHT22;12309;51.450;-2.624;2024-03-22T01:59:13;9.20;99.90
24148;DHT22;12309;51.450;-2.624;2024-03-22T02:01:40;9.20;99.90
24148;DHT22;12309;51.450;-2.624;2024-03-22T02:04:06;9.20;99.90
24148;DHT22;12309;51.450;-2.624;2024-03-22T02:06:32;9.20;99.90
24148;DHT22;12309;51.450;-2.624;2024-03-22T02:08:58;9.10;99.90
24148;DHT22;12309;51.450;-2.624;2024-03-22T02:11:25;9.20;99.90
24148;DHT22;12309;51.450;-2.624;2024-03-22T02:13:52;9.10;99.90
24148;DHT22;12309;51.450;-2.624;2024-03-22T02:16:18;9.10;99.90
24148;DHT22;12309;51.450;-2.624;2024-03-22T02:18:44;9.20;99.90
24148;DHT22;12309;51.450;-2.624;2024-03-22T02:21:12;9.10;99.90
24148;DHT22;12309;51.450;-2.624;2024-03-22T02:23:39;9.10;99.90
24148;DHT22;12309;51.450;-2.624;2024-03-22T02:26:05;9.10;99.90
24148;DHT22;12309;51.450;-2.624;2024-03-22T02:28:33;9.10;99.90
24148;DHT22;12309;51.450;-2.624;2024-03-22T02:30:59;9.10;99.90
24148;DHT22;12309;51.450;-2.624;2024-03-22T02:33:25;9.10;99.90
24148;DHT22;12309;51.450;-2.624;2024-03-22T02:35:51;9.10;99.90
24148;DHT22;12309;51.450;-2.624;2024-03-22T02:38:17;9.20;99.90
24148;DHT22;12309;51.450;-2.624;2024-03-22T02:40:44;9.20;99.90
24148;DHT22;12309;51.450;-2.624;2024-03-22T02:43:10;9.30;99.90
24148;DHT22;12309;51.450;-2.624;2024-03-22T02:45:36;9.30;99.90
24148;DHT22;12309;51.450;-2.624;2024-03-22T02:48:02;9.30;99.90
24148;DHT22;12309;51.450;-2.624;2024-03-22T02:50:28;9.30;99.90
24148;DHT22;12309;51.450;-2.624;2024-03-22T02:52:57;9.30;99.90
24148;DHT22;12309;51.450;-2.624;2024-03-22T02:55:23;9.40;99.90
24148;DHT22;12309;51.450;-2.624;2024-03-22T02:57:49;9.40;99.90
24148;DHT22;12309;51.450;-2.624;2024-03-22T03:00:15;9.40;99.90
24148;DHT22;12309;51.450;-2.624;2024-03-22T03:02:41;9.40;99.90
24148;DHT22;12309;51.450;-2.624;2024-03-22T03:05:07;9.40;99.90
24148;DHT22;12309;51.450;-2.624;2024-03-22T03:07:32;9.50;99.90
24148;DHT22;12309;51.450;-2.624;2024-03-22T03:09:58;9.50;99.90
24148;DHT22;12309;51.450;-2.624;2024-03-22T03:12:24;9.50;99.90
24148;DHT22;12309;51.450;-2.624;2024-03-22T03:14:49;9.50;99.90
24148;DHT22;12309;51.450;-2.624;2024-03-22T03:17:15;9.50;99.90
24148;DHT22;12309;51.450;-2.624;2024-03-22T03:19:40;9.50;99.90
24148;DHT22;12309;51.450;-2.624;2024-03-22T03:22:07;9.50;99.90
24148;DHT22;12309;51.450;-2.624;2024-03-22T03:24:32;9.50;99.90
24148;DHT22;12309;51.450;-2.624;2024-03-22T03:26:58;9.40;99.90
24148;DHT22;12309;51.450;-2.624;2024-03-22T03:29:24;9.60;99.90
24148;DHT22;12309;51.450;-2.624;2024-03-22T03:31:49;9.60;99.90
24148;DHT22;12309;51.450;-2.624;2024-03-22T03:34:15;9.50;99.90
24148;DHT22;12309;51.450;-2.624;2024-03-22T03:39:07;9.60;99.90
24148;DHT22;12309;51.450;-2.624;2024-03-22T03:41:32;9.60;99.90
24148;DHT22;12309;51.450;-2.624;2024-03-22T03:43:58;9.60;99.90
24148;DHT22;12309;51.450;-2.624;2024-03-22T03:46:24;9.60;99.90
24148;DHT22;12309;51.450;-2.624;2024-03-22T03:48:49;9.70;99.90
24148;DHT22;12309;51.450;-2.624;2024-03-22T03:51:15;9.60;99.90
24148;DHT22;12309;51.450;-2.624;2024-03-22T03:53:41;9.60;99.90
24148;DHT22;12309;51.450;-2.624;2024-03-22T03:56:06;9.60;99.90
24148;DHT22;12309;51.450;-2.624;2024-03-22T03:58:32;9.60;99.90
24148;DHT22;12309;51.450;-2.624;2024-03-22T04:00:58;9.60;99.90
24148;DHT22;12309;51.450;-2.624;2024-03-22T04:03:24;9.60;99.90
24148;DHT22;12309;51.450;-2.624;2024-03-22T04:05:59;9.50;99.90
24148;DHT22;12309;51.450;-2.624;2024-03-22T04:08:26;9.60;99.90
24148;DHT22;12309;51.450;-2.624;2024-03-22T04:10:55;9.60;99.90
24148;DHT22;12309;51.450;-2.624;2024-03-22T04:13:24;9.60;99.90
24148;DHT22;12309;51.450;-2.624;2024-03-22T04:15:51;9.60;99.90
24148;DHT22;12309;51.450;-2.624;2024-03-22T04:18:17;9.60;99.90
24148;DHT22;12309;51.450;-2.624;2024-03-22T04:20:52;9.60;99.90
24148;DHT22;12309;51.450;-2.624;2024-03-22T04:23:18;9.60;99.90
24148;DHT22;12309;51.450;-2.624;2024-03-22T04:25:54;9.60;99.90
24148;DHT22;12309;51.450;-2.624;2024-03-22T04:28:20;9.60;99.90
24148;DHT22;12309;51.450;-2.624;2024-03-22T04:31:03;9.60;99.90
24148;DHT22;12309;51.450;-2.624;2024-03-22T04:33:30;9.60;99.90
24148;DHT22;12309;51.450;-2.624;2024-03-22T04:35:56;9.60;99.90
24148;DHT22;12309;51.450;-2.624;2024-03-22T04:38:23;9.70;99.90
24148;DHT22;12309;51.450;-2.624;2024-03-22T04:40:49;9.70;99.90
24148;DHT22;12309;51.450;-2.624;2024-03-22T04:43:15;9.70;99.90
24148;DHT22;12309;51.450;-2.624;2024-03-22T04:45:45;9.70;99.90
24148;DHT22;12309;51.450;-2.624;2024-03-22T04:48:13;9.70;99.90
24148;DHT22;12309;51.450;-2.624;2024-03-22T04:50:39;9.80;99.90
24148;DHT22;12309;51.450;-2.624;2024-03-22T04:53:04;9.70;99.90
24148;DHT22;12309;51.450;-2.624;2024-03-22T04:55:31;9.70;99.90
24148;DHT22;12309;51.450;-2.624;2024-03-22T04:57:58;9.50;99.90
24148;DHT22;12309;51.450;-2.624;2024-03-22T05:00:24;9.70;99.90
24148;DHT22;12309;51.450;-2.624;2024-03-22T05:02:51;9.80;99.90
24148;DHT22;12309;51.450;-2.624;2024-03-22T05:07:42;9.80;99.90
24148;DHT22;12309;51.450;-2.624;2024-03-22T05:10:08;10.00;99.90
24148;DHT22;12309;51.450;-2.624;2024-03-22T05:12:35;9.80;99.90
24148;DHT22;12309;51.450;-2.624;2024-03-22T05:15:03;9.80;99.90
24148;DHT22;12309;51.450;-2.624;2024-03-22T05:17:29;9.80;99.90
24148;DHT22;12309;51.450;-2.624;2024-03-22T05:19:57;9.80;99.90
24148;DHT22;12309;51.450;-2.624;2024-03-22T05:22:23;9.80;99.90
24148;DHT22;12309;51.450;-2.624;2024-03-22T05:24:48;9.80;99.90
24148;DHT22;12309;51.450;-2.624;2024-03-22T05:27:14;9.80;99.90
24148;DHT22;12309;51.450;-2.624;2024-03-22T05:29:40;9.80;99.90
24148;DHT22;12309;51.450;-2.624;2024-03-22T05:32:05;9.80;99.90
24148;DHT22;12309;51.450;-2.624;2024-03-22T05:34:31;9.80;99.90
24148;DHT22;12309;51.450;-2.624;2024-03-22T05:36:58;9.90;99.90
24148;DHT22;12309;51.450;-2.624;2024-03-22T05:39:24;9.90;99.90
24148;DHT22;12309;51.450;-2.624;2024-03-22T05:41:50;9.90;99.90
24148;DHT22;12309;51.450;-2.624;2024-03-22T05:44:15;9.90;99.90
24148;DHT22;12309;51.450;-2.624;2024-03-22T05:46:41;9.90;99.90
24148;DHT22;12309;51.450;-2.624;2024-03-22T05:49:07;10.00;99.90
24148;DHT22;12309;51.450;-2.624;2024-03-22T05:51:33;10.00;99.90
24148;DHT22;12309;51.450;-2.624;2024-03-22T05:53:58;10.00;99.90
24148;DHT22;12309;51.450;-2.624;2024-03-22T05:56:24;10.00;99.90
24148;DHT22;12309;51.450;-2.624;2024-03-22T05:58:50;10.00;99.90
24148;DHT22;12309;51.450;-2.624;2024-03-22T06:01:15;10.00;99.90
24148;DHT22;12309;51.450;-2.624;2024-03-22T06:03:41;10.00;99.90
24148;DHT22;12309;51.450;-2.624;2024-03-22T06:06:08;10.00;99.90
24148;DHT22;12309;51.450;-2.624;2024-03-22T06:08:34;10.00;99.90
24148;DHT22;12309;51.450;-2.624;2024-03-22T06:11:00;10.00;99.90
24148;DHT22;12309;51.450;-2.624;2024-03-22T06:13:26;10.00;99.90
24148;DHT22;12309;51.450;-2.624;2024-03-22T06:15:52;10.00;99.90
24148;DHT22;12309;51.450;-2.624;2024-03-22T06:18:17;10.00;99.90
24148;DHT22;12309;51.450;-2.624;2024-03-22T06:20:43;10.00;99.90
24148;DHT22;12309;51.450;-2.624;2024-03-22T06:23:09;10.00;99.90
24148;DHT22;12309;51.450;-2.624;2024-03-22T06:25:35;9.90;99.90
24148;DHT22;12309;51.450;-2.624;2024-03-22T06:28:01;9.90;99.90
24148;DHT22;12309;51.450;-2.624;2024-03-22T06:30:26;9.90;99.90
24148;DHT22;12309;51.450;-2.624;2024-03-22T06:32:53;9.90;99.90
24148;DHT22;12309;51.450;-2.624;2024-03-22T06:35:20;9.60;99.90
24148;DHT22;12309;51.450;-2.624;2024-03-22T06:37:46;9.90;99.90
24148;DHT22;12309;51.450;-2.624;2024-03-22T06:40:12;9.90;99.90
24148;DHT22;12309;51.450;-2.624;2024-03-22T06:42:37;9.90;99.90
24148;DHT22;12309;51.450;-2.624;2024-03-22T06:45:03;9.90;99.90
24148;DHT22;12309;51.450;-2.624;2024-03-22T06:47:29;9.90;99.90
24148;DHT22;12309;51.450;-2.624;2024-03-22T06:49:55;9.90;99.90
24148;DHT22;12309;51.450;-2.624;2024-03-22T06:52:21;9.90;99.90
24148;DHT22;12309;51.450;-2.624;2024-03-22T06:54:47;9.90;99.90
24148;DHT22;12309;51.450;-2.624;2024-03-22T06:57:12;9.90;99.90
24148;DHT22;12309;51.450;-2.624;2024-03-22T06:59:38;9.90;99.90
24148;DHT22;12309;51.450;-2.624;2024-03-22T07:02:04;9.70;99.90
24148;DHT22;12309;51.450;-2.624;2024-03-22T07:04:30;9.80;99.90
24148;DHT22;12309;51.450;-2.624;2024-03-22T07:06:55;9.80;99.90
24148;DHT22;12309;51.450;-2.624;2024-03-22T07:09:21;9.80;99.90
24148;DHT22;12309;51.450;-2.624;2024-03-22T07:11:47;9.80;99.90
24148;DHT22;12309;51.450;-2.624;2024-03-22T07:14:12;10.00;99.90
24148;DHT22;12309;51.450;-2.624;2024-03-22T07:16:38;9.80;99.90
24148;DHT22;12309;51.450;-2.624;2024-03-22T07:19:04;9.80;99.90
24148;DHT22;12309;51.450;-2.624;2024-03-22T07:21:30;9.80;99.90
24148;DHT22;12309;51.450;-2.624;2024-03-22T07:23:56;9.90;99.90
24148;DHT22;12309;51.450;-2.624;2024-03-22T07:26:22;9.90;99.90
24148;DHT22;12309;51.450;-2.624;2024-03-22T07:28:47;10.00;99.90
24148;DHT22;12309;51.450;-2.624;2024-03-22T07:31:13;10.00;99.90
24148;DHT22;12309;51.450;-2.624;2024-03-22T07:33:39;10.00;99.90
24148;DHT22;12309;51.450;-2.624;2024-03-22T07:36:06;10.10;99.90
24148;DHT22;12309;51.450;-2.624;2024-03-22T07:38:31;10.20;99.90
24148;DHT22;12309;51.450;-2.624;2024-03-22T07:40:57;10.20;99.90
24148;DHT22;12309;51.450;-2.624;2024-03-22T07:43:23;10.20;99.90
24148;DHT22;12309;51.450;-2.624;2024-03-22T07:45:48;10.00;99.90
24148;DHT22;12309;51.450;-2.624;2024-03-22T07:48:15;10.00;99.90
24148;DHT22;12309;51.450;-2.624;2024-03-22T07:50:41;10.00;99.90
24148;DHT22;12309;51.450;-2.624;2024-03-22T07:53:06;10.00;99.90
24148;DHT22;12309;51.450;-2.624;2024-03-22T07:55:32;10.00;99.90
24148;DHT22;12309;51.450;-2.624;2024-03-22T07:57:58;9.90;99.90
24148;DHT22;12309;51.450;-2.624;2024-03-22T08:00:24;9.90;99.90
24148;DHT22;12309;51.450;-2.624;2024-03-22T08:07:45;9.70;99.90
24148;DHT22;12309;51.450;-2.624;2024-03-22T08:10:10;9.60;99.90
24148;DHT22;12309;51.450;-2.624;2024-03-22T08:12:36;9.60;99.90
24148;DHT22;12309;51.450;-2.624;2024-03-22T08:15:02;9.70;99.90
24148;DHT22;12309;51.450;-2.624;2024-03-22T08:17:28;9.60;99.90
24148;DHT22;12309;51.450;-2.624;2024-03-22T08:19:54;9.60;99.90
24148;DHT22;12309;51.450;-2.624;2024-03-22T08:22:20;9.70;99.90
24148;DHT22;12309;51.450;-2.624;2024-03-22T08:24:45;9.70;99.90
24148;DHT22;12309;51.450;-2.624;2024-03-22T08:29:37;9.70;99.90
24148;DHT22;12309;51.450;-2.624;2024-03-22T08:32:03;9.70;99.90
24148;DHT22;12309;51.450;-2.624;2024-03-22T08:36:58;9.80;99.90
24148;DHT22;12309;51.450;-2.624;2024-03-22T08:39:23;9.90;99.90
24148;DHT22;12309;51.450;-2.624;2024-03-22T08:41:50;10.00;99.90
24148;DHT22;12309;51.450;-2.624;2024-03-22T08:44:16;10.10;99.90
24148;DHT22;12309;51.450;-2.624;2024-03-22T08:46:42;10.00;99.90
24148;DHT22;12309;51.450;-2.624;2024-03-22T08:49:07;10.10;99.90
24148;DHT22;12309;51.450;-2.624;2024-03-22T08:51:33;10.40;99.90
24148;DHT22;12309;51.450;-2.624;2024-03-22T08:54:00;10.30;99.90
24148;DHT22;12309;51.450;-2.624;2024-03-22T08:56:29;10.30;99.90
24148;DHT22;12309;51.450;-2.624;2024-03-22T08:58:55;10.40;99.90
24148;DHT22;12309;51.450;-2.624;2024-03-22T09:01:21;10.50;99.90
24148;DHT22;12309;51.450;-2.624;2024-03-22T09:03:48;10.50;99.90
24148;DHT22;12309;51.450;-2.624;2024-03-22T09:06:14;10.60;99.90
24148;DHT22;12309;51.450;-2.624;2024-03-22T09:08:40;10.60;99.90
24148;DHT22;12309;51.450;-2.624;2024-03-22T09:11:06;10.60;99.90
24148;DHT22;12309;51.450;-2.624;2024-03-22T09:13:32;10.60;99.90
24148;DHT22;12309;51.450;-2.624;2024-03-22T09:16:00;10.60;99.90
24148;DHT22;12309;51.450;-2.624;2024-03-22T09:18:26;10.60;99.90
24148;DHT22;12309;51.450;-2.624;2024-03-22T09:20:53;10.60;99.90
24148;DHT22;12309;51.450;-2.624;2024-03-22T09:23:19;10.70;99.90
24148;DHT22;12309;51.450;-2.624;2024-03-22T09:25:46;10.70;99.90
24148;DHT22;12309;51.450;-2.624;2024-03-22T09:28:12;10.70;99.90
24148;DHT22;12309;51.450;-2.624;2024-03-22T09:30:41;10.90;99.90
24148;DHT22;12309;51.450;-2.624;2024-03-22T09:33:08;11.10;99.90
24148;DHT22;12309;51.450;-2.624;2024-03-22T09:35:35;11.10;99.90
24148;DHT22;12309;51.450;-2.624;2024-03-22T09:40:27;11.30;99.90
24148;DHT22;12309;51.450;-2.624;2024-03-22T09:42:53;11.40;99.90
24148;DHT22;12309;51.450;-2.624;2024-03-22T09:45:19;11.70;99.90
24148;DHT22;12309;51.450;-2.624;2024-03-22T09:47:46;11.50;99.90
24148;DHT22;12309;51.450;-2.624;2024-03-22T09:50:13;11.50;99.90
24148;DHT22;12309;51.450;-2.624;2024-03-22T09:52:39;11.50;99.90
24148;DHT22;12309;51.450;-2.624;2024-03-22T09:55:06;11.50;99.90
24148;DHT22;12309;51.450;-2.624;2024-03-22T09:57:35;11.40;99.90
24148;DHT22;12309;51.450;-2.624;2024-03-22T10:00:03;11.40;99.90
24148;DHT22;12309;51.450;-2.624;2024-03-22T10:02:31;11.30;99.90
24148;DHT22;12309;51.450;-2.624;2024-03-22T10:04:58;11.50;99.90
24148;DHT22;12309;51.450;-2.624;2024-03-22T10:09:51;11.50;99.90
24148;DHT22;12309;51.450;-2.624;2024-03-22T10:12:17;11.40;99.90
24148;DHT22;12309;51.450;-2.624;2024-03-22T10:14:43;11.30;99.90
24148;DHT22;12309;51.450;-2.624;2024-03-22T10:17:10;11.30;99.90
24148;DHT22;12309;51.450;-2.624;2024-03-22T10:19:35;11.20;99.90
24148;DHT22;12309;51.450;-2.624;2024-03-22T10:22:04;11.40;99.90
24148;DHT22;12309;51.450;-2.624;2024-03-22T10:24:33;11.10;99.90
24148;DHT22;12309;51.450;-2.624;2024-03-22T10:26:59;11.40;99.90
24148;DHT22;12309;51.450;-2.624;2024-03-22T10:29:25;11.50;99.90
24148;DHT22;12309;51.450;-2.624;2024-03-22T10:31:53;11.40;99.90
24148;DHT22;12309;51.450;-2.624;2024-03-22T10:34:21;11.30;99.90
24148;DHT22;12309;51.450;-2.624;2024-03-22T10:36:47;11.30;99.90
24148;DHT22;12309;51.450;-2.624;2024-03-22T10:39:18;11.50;99.90
24148;DHT22;12309;51.450;-2.624;2024-03-22T10:41:47;11.50;99.90
24148;DHT22;12309;51.450;-2.624;2024-03-22T10:44:16;11.60;99.90
24148;DHT22;12309;51.450;-2.624;2024-03-22T10:46:46;11.60;99.90
24148;DHT22;12309;51.450;-2.624;2024-03-22T10:49:19;11.70;99.90
24148;DHT22;12309;51.450;-2.624;2024-03-22T10:51:59;11.70;99.90
24148;DHT22;12309;51.450;-2.624;2024-03-22T10:54:32;11.90;99.90
24148;DHT22;12309;51.450;-2.624;2024-03-22T10:56:58;12.00;99.90
24148;DHT22;12309;51.450;-2.624;2024-03-22T10:59:24;12.00;99.90
24148;DHT22;12309;51.450;-2.624;2024-03-22T11:01:50;12.10;99.90
24148;DHT22;12309;51.450;-2.624;2024-03-22T11:04:22;12.10;99.90
24148;DHT22;12309;51.450;-2.624;2024-03-22T11:06:52;12.10;99.90
24148;DHT22;12309;51.450;-2.624;2024-03-22T11:09:21;12.30;99.90
24148;DHT22;12309;51.450;-2.624;2024-03-22T11:11:47;12.10;99.90
24148;DHT22;12309;51.450;-2.624;2024-03-22T11:16:59;12.20;99.90
24148;DHT22;12309;51.450;-2.624;2024-03-22T11:19:25;12.50;99.90
24148;DHT22;12309;51.450;-2.624;2024-03-22T11:21:51;12.30;99.90
24148;DHT22;12309;51.450;-2.624;2024-03-22T11:24:17;12.40;99.90
24148;DHT22;12309;51.450;-2.624;2024-03-22T11:26:42;12.50;99.90
24148;DHT22;12309;51.450;-2.624;2024-03-22T11:29:09;12.40;99.90
24148;DHT22;12309;51.450;-2.624;2024-03-22T11:31:35;12.40;99.90
24148;DHT22;12309;51.450;-2.624;2024-03-22T11:34:02;12.60;99.90
24148;DHT22;12309;51.450;-2.624;2024-03-22T11:36:28;12.60;99.90
24148;DHT22;12309;51.450;-2.624;2024-03-22T11:38:53;12.80;99.90
24148;DHT22;12309;51.450;-2.624;2024-03-22T11:41:24;12.80;99.90
24148;DHT22;12309;51.450;-2.624;2024-03-22T11:43:52;12.70;99.90
24148;DHT22;12309;51.450;-2.624;2024-03-22T11:46:18;12.70;99.90
24148;DHT22;12309;51.450;-2.624;2024-03-22T11:48:51;12.50;99.90
24148;DHT22;12309;51.450;-2.624;2024-03-22T11:51:17;12.20;99.90
24148;DHT22;12309;51.450;-2.624;2024-03-22T11:53:52;12.30;99.90
24148;DHT22;12309;51.450;-2.624;2024-03-22T11:56:20;12.30;99.90
24148;DHT22;12309;51.450;-2.624;2024-03-22T11:58:49;12.20;99.90
24148;DHT22;12309;51.450;-2.624;2024-03-22T12:01:22;12.00;99.90
24148;DHT22;12309;51.450;-2.624;2024-03-22T12:03:48;11.90;99.90
24148;DHT22;12309;51.450;-2.624;2024-03-22T12:06:15;12.10;99.90
24148;DHT22;12309;51.450;-2.624;2024-03-22T12:08:41;12.10;99.90
24148;DHT22;12309;51.450;-2.624;2024-03-22T12:11:10;12.30;99.90
24148;DHT22;12309;51.450;-2.624;2024-03-22T12:13:37;12.70;99.90
24148;DHT22;12309;51.450;-2.624;2024-03-22T12:16:04;13.10;99.90
24148;DHT22;12309;51.450;-2.624;2024-03-22T12:18:30;13.90;99.90
24148;DHT22;12309;51.450;-2.624;2024-03-22T12:20:56;14.50;99.90
24148;DHT22;12309;51.450;-2.624;2024-03-22T12:23:22;15.50;99.90
24148;DHT22;12309;51.450;-2.624;2024-03-22T12:25:50;15.60;99.90
24148;DHT22;12309;51.450;-2.624;2024-03-22T12:28:16;15.50;99.90
24148;DHT22;12309;51.450;-2.624;2024-03-22T12:30:41;15.70;99.90
24148;DHT22;12309;51.450;-2.624;2024-03-22T12:33:08;15.20;99.90
24148;DHT22;12309;51.450;-2.624;2024-03-22T12:35:39;15.30;99.90
24148;DHT22;12309;51.450;-2.624;2024-03-22T12:38:05;15.10;99.90
24148;DHT22;12309;51.450;-2.624;2024-03-22T12:40:31;15.50;99.90
24148;DHT22;12309;51.450;-2.624;2024-03-22T12:42:58;16.00;99.90
24148;DHT22;12309;51.450;-2.624;2024-03-22T12:45:24;16.00;99.90
24148;DHT22;12309;51.450;-2.624;2024-03-22T12:47:50;16.60;99.90
24148;DHT22;12309;51.450;-2.624;2024-03-22T12:50:15;16.90;99.90
24148;DHT22;12309;51.450;-2.624;2024-03-22T12:52:41;17.90;99.90
24148;DHT22;12309;51.450;-2.624;2024-03-22T12:55:09;18.10;99.90
24148;DHT22;12309;51.450;-2.624;2024-03-22T12:57:35;17.70;99.90
24148;DHT22;12309;51.450;-2.624;2024-03-22T13:00:00;16.50;99.90
24148;DHT22;12309;51.450;-2.624;2024-03-22T13:02:26;15.70;99.90
24148;DHT22;12309;51.450;-2.624;2024-03-22T13:04:52;15.10;99.90
24148;DHT22;12309;51.450;-2.624;2024-03-22T13:07:19;14.60;99.90
24148;DHT22;12309;51.450;-2.624;2024-03-22T13:09:45;14.30;99.90
24148;DHT22;12309;51.450;-2.624;2024-03-22T13:12:11;14.00;99.90
24148;DHT22;12309;51.450;-2.624;2024-03-22T13:14:36;13.70;99.90
24148;DHT22;12309;51.450;-2.624;2024-03-22T13:17:02;13.70;99.90
24148;DHT22;12309;51.450;-2.624;2024-03-22T13:19:28;14.50;99.90
24148;DHT22;12309;51.450;-2.624;2024-03-22T13:21:53;15.10;99.90
24148;DHT22;12309;51.450;-2.624;2024-03-22T13:24:19;15.40;99.90
24148;DHT22;12309;51.450;-2.624;2024-03-22T13:26:45;14.90;99.90
24148;DHT22;12309;51.450;-2.624;2024-03-22T13:29:11;14.80;99.90
24148;DHT22;12309;51.450;-2.624;2024-03-22T13:31:38;15.40;99.90
24148;DHT22;12309;51.450;-2.624;2024-03-22T13:34:04;16.20;99.90
24148;DHT22;12309;51.450;-2.624;2024-03-22T13:36:29;17.30;99.90
24148;DHT22;12309;51.450;-2.624;2024-03-22T13:38:58;18.20;99.90
24148;DHT22;12309;51.450;-2.624;2024-03-22T13:41:24;18.50;99.90
24148;DHT22;12309;51.450;-2.624;2024-03-22T13:43:50;18.40;99.90
24148;DHT22;12309;51.450;-2.624;2024-03-22T13:46:15;17.80;99.90
24148;DHT22;12309;51.450;-2.624;2024-03-22T13:48:43;17.80;99.90
24148;DHT22;12309;51.450;-2.624;2024-03-22T13:51:08;18.10;99.90
24148;DHT22;12309;51.450;-2.624;2024-03-22T13:53:34;17.80;99.90
24148;DHT22;12309;51.450;-2.624;2024-03-22T13:56:00;18.10;99.90
24148;DHT22;12309;51.450;-2.624;2024-03-22T13:58:26;17.70;99.90
24148;DHT22;12309;51.450;-2.624;2024-03-22T14:00:53;17.20;99.90
24148;DHT22;12309;51.450;-2.624;2024-03-22T14:03:18;18.50;99.90
24148;DHT22;12309;51.450;-2.624;2024-03-22T14:05:44;19.00;99.90
24148;DHT22;12309;51.450;-2.624;2024-03-22T14:08:10;19.80;99.90
24148;DHT22;12309;51.450;-2.624;2024-03-22T14:10:37;20.10;99.90
24148;DHT22;12309;51.450;-2.624;2024-03-22T14:13:03;18.90;99.90
24148;DHT22;12309;51.450;-2.624;2024-03-22T14:15:29;18.30;99.90
24148;DHT22;12309;51.450;-2.624;2024-03-22T14:17:58;17.10;99.90
24148;DHT22;12309;51.450;-2.624;2024-03-22T14:20:24;16.30;99.90
24148;DHT22;12309;51.450;-2.624;2024-03-22T14:22:50;15.20;99.90
24148;DHT22;12309;51.450;-2.624;2024-03-22T14:25:17;15.00;99.90
24148;DHT22;12309;51.450;-2.624;2024-03-22T14:27:43;16.10;99.90
24148;DHT22;12309;51.450;-2.624;2024-03-22T14:30:12;18.00;99.90
24148;DHT22;12309;51.450;-2.624;2024-03-22T14:32:39;19.40;99.90
24148;DHT22;12309;51.450;-2.624;2024-03-22T14:35:05;19.80;99.90
24148;DHT22;12309;51.450;-2.624;2024-03-22T14:37:31;19.30;99.90
24148;DHT22;12309;51.450;-2.624;2024-03-22T14:39:57;17.70;99.90
24148;DHT22;12309;51.450;-2.624;2024-03-22T14:42:23;18.00;99.90
24148;DHT22;12309;51.450;-2.624;2024-03-22T14:44:48;18.90;99.90
24148;DHT22;12309;51.450;-2.624;2024-03-22T14:47:14;19.30;99.90
24148;DHT22;12309;51.450;-2.624;2024-03-22T14:49:39;20.30;99.90
24148;DHT22;12309;51.450;-2.624;2024-03-22T14:52:06;18.90;99.90
24148;DHT22;12309;51.450;-2.624;2024-03-22T14:54:32;19.50;99.90
24148;DHT22;12309;51.450;-2.624;2024-03-22T14:56:57;20.10;99.90
24148;DHT22;12309;51.450;-2.624;2024-03-22T14:59:23;20.60;99.90
24148;DHT22;12309;51.450;-2.624;2024-03-22T15:01:53;21.10;99.90
24148;DHT22;12309;51.450;-2.624;2024-03-22T15:04:19;21.20;99.90
24148;DHT22;12309;51.450;-2.624;2024-03-22T15:06:45;21.30;99.90
24148;DHT22;12309;51.450;-2.624;2024-03-22T15:09:14;21.60;99.90
24148;DHT22;12309;51.450;-2.624;2024-03-22T15:11:39;21.60;99.90
24148;DHT22;12309;51.450;-2.624;2024-03-22T15:14:05;21.30;99.90
24148;DHT22;12309;51.450;-2.624;2024-03-22T15:16:32;21.10;99.90
24148;DHT22;12309;51.450;-2.624;2024-03-22T15:18:58;20.70;99.90
24148;DHT22;12309;51.450;-2.624;2024-03-22T15:21:23;20.70;99.90
24148;DHT22;12309;51.450;-2.624;2024-03-22T15:23:49;21.00;99.90
24148;DHT22;12309;51.450;-2.624;2024-03-22T15:26:15;21.10;99.90
24148;DHT22;12309;51.450;-2.624;2024-03-22T15:28:40;20.40;99.90
24148;DHT22;12309;51.450;-2.624;2024-03-22T15:31:06;20.70;99.90
24148;DHT22;12309;51.450;-2.624;2024-03-22T15:33:32;21.00;99.90
24148;DHT22;12309;51.450;-2.624;2024-03-22T15:35:58;20.50;99.90
24148;DHT22;12309;51.450;-2.624;2024-03-22T15:38:24;20.40;99.90
24148;DHT22;12309;51.450;-2.624;2024-03-22T15:40:50;20.40;99.90